Time;durP1;ratioP1;P1;durP2;ratioP2;P2;SDS_P1;SDS_P2;PMS_P1;PMS_P2;Temp;Humidity;BMP_temperature;BMP_pressure;BME280_temperature;BME280_humidity;BME280_pressure;Samples;Min_cycle;Max_cycle;Signal;HPM_P1;HPM_P2
2024/03/18 00:00:19;;;;;;;2.90;1.23;;;12.40;72.20;;;;;;5136921;27;20424;-66
2024/03/18 00:06:07;;;;;;;2.83;1.53;;;12.30;72.60;;;;;;5136893;27;20873;-66
2024/03/18 00:11:56;;;;;;;2.30;0.93;;;12.10;74.70;;;;;;5136803;27;20457;-66
2024/03/18 00:17:47;;;;;;;4.65;1.40;;;12.10;75.70;;;;;;5136685;27;20399;-66
2024/03/18 00:20:14;;;;;;;3.03;1.60;;;12.10;76.00;;;;;;5136417;27;20592;-66
2024/03/18 00:22:42;;;;;;;4.20;1.63;;;12.10;76.50;;;;;;5136921;27;20470;-66
2024/03/18 00:25:11;;;;;;;4.37;1.70;;;12.20;76.30;;;;;;5137174;27;20413;-66
2024/03/18 00:27:38;;;;;;;2.53;1.17;;;12.20;76.40;;;;;;5135907;27;20551;-67
2024/03/18 00:30:10;;;;;;;3.70;2.00;;;12.30;76.80;;;;;;5135974;27;20417;-66
2024/03/18 00:36:01;;;;;;;2.50;1.20;;;12.30;76.70;;;;;;5136267;27;20353;-66
2024/03/18 00:38:27;;;;;;;4.63;1.50;;;12.30;76.80;;;;;;5136122;27;20472;-66
2024/03/18 00:43:54;;;;;;;2.90;1.47;;;12.40;77.10;;;;;;5136381;27;20381;-66
2024/03/18 00:46:21;;;;;;;3.40;1.70;;;12.30;77.60;;;;;;5136235;27;20413;-66
2024/03/18 00:52:24;;;;;;;3.90;1.27;;;12.20;79.00;;;;;;5135359;27;20377;-66
2024/03/18 00:58:13;;;;;;;2.93;1.30;;;12.20;79.40;;;;;;5135532;27;20847;-66
2024/03/18 01:00:40;;;;;;;6.17;1.97;;;12.20;79.60;;;;;;5136748;27;20490;-66
2024/03/18 01:03:10;;;;;;;3.47;1.67;;;12.20;80.00;;;;;;5135491;27;20438;-66
2024/03/18 01:05:40;;;;;;;4.00;1.43;;;12.20;80.40;;;;;;5135588;27;20426;-66
2024/03/18 01:11:52;;;;;;;5.10;1.60;;;12.30;80.70;;;;;;5135585;27;20810;-66
2024/03/18 01:17:41;;;;;;;4.10;1.60;;;12.30;79.80;;;;;;5135504;27;20357;-66
2024/03/18 01:20:14;;;;;;;3.70;1.67;;;12.40;80.20;;;;;;5135817;27;20471;-66
2024/03/18 01:22:41;;;;;;;4.90;1.57;;;12.30;80.60;;;;;;5136418;27;20420;-66
2024/03/18 01:28:43;;;;;;;2.60;1.50;;;12.40;80.80;;;;;;5134736;27;20447;-66
2024/03/18 01:31:23;;;;;;;3.60;1.87;;;12.40;80.10;;;;;;5135148;27;20420;-66
2024/03/18 01:33:54;;;;;;;5.40;2.07;;;12.40;80.30;;;;;;5135354;27;20489;-66
2024/03/18 01:39:43;;;;;;;3.17;1.37;;;12.40;79.70;;;;;;5134319;27;20807;-66
2024/03/18 01:45:33;;;;;;;2.60;1.40;;;12.40;80.10;;;;;;5135041;27;20748;-66
2024/03/18 01:48:00;;;;;;;3.03;1.40;;;12.40;79.80;;;;;;5135069;27;20770;-66
2024/03/18 01:51:17;;;;;;;4.23;1.60;;;12.40;80.10;;;;;;5136010;27;20805;-66
2024/03/18 01:57:06;;;;;;;5.47;1.50;;;12.30;81.70;;;;;;5134913;27;20369;-66
2024/03/18 01:59:33;;;;;;;3.67;1.40;;;12.20;81.50;;;;;;5133894;27;20538;-66
2024/03/18 02:05:23;;;;;;;2.73;1.30;;;12.30;81.40;;;;;;5134751;28;20413;-66
2024/03/18 02:11:12;;;;;;;2.63;2.07;;;12.20;81.70;;;;;;5134711;28;20393;-66
2024/03/18 02:17:01;;;;;;;3.40;1.50;;;12.30;81.60;;;;;;5134608;28;20403;-66
2024/03/18 02:22:54;;;;;;;4.97;1.70;;;12.30;81.50;;;;;;5134535;28;20425;-66
2024/03/18 02:25:25;;;;;;;2.90;1.17;;;12.30;81.60;;;;;;5134695;28;20423;-66
2024/03/18 02:31:33;;;;;;;2.73;1.23;;;12.10;82.40;;;;;;5099739;28;20426;-66
2024/03/18 02:34:00;;;;;;;3.07;1.73;;;12.10;82.60;;;;;;5093592;28;20773;-66
2024/03/18 02:36:27;;;;;;;4.00;1.50;;;12.10;82.80;;;;;;5093233;28;20441;-66
2024/03/18 02:42:17;;;;;;;3.00;1.60;;;12.00;83.60;;;;;;5093507;28;20367;-66
2024/03/18 02:48:06;;;;;;;2.77;1.30;;;11.90;84.70;;;;;;5093404;28;20772;-66
2024/03/18 02:53:55;;;;;;;7.00;1.50;;;11.80;85.10;;;;;;5095223;28;20849;-66
2024/03/18 02:59:47;;;;;;;4.60;1.20;;;11.90;84.60;;;;;;5110319;28;20456;-66
2024/03/18 03:02:38;;;;;;;2.00;1.10;;;11.90;84.50;;;;;;5118283;28;20736;-66
2024/03/18 03:08:27;;;;;;;2.90;1.27;;;11.90;84.50;;;;;;5117447;28;20415;-66
2024/03/18 03:14:16;;;;;;;2.60;1.07;;;11.90;84.20;;;;;;5117357;28;20377;-66
2024/03/18 03:20:08;;;;;;;2.33;1.13;;;11.80;84.70;;;;;;5117154;28;20455;-66
2024/03/18 03:22:35;;;;;;;2.87;1.80;;;11.80;85.00;;;;;;5106292;28;20502;-66
2024/03/18 03:25:49;;;;;;;2.67;1.40;;;11.90;85.30;;;;;;5096550;28;20828;-66
2024/03/18 03:28:17;;;;;;;4.43;1.63;;;11.90;84.90;;;;;;5098796;28;20419;-66
2024/03/18 03:31:38;;;;;;;3.60;1.30;;;11.90;85.00;;;;;;5109818;28;20446;-66
2024/03/18 03:37:41;;;;;;;3.38;2.22;;;11.90;84.60;;;;;;5116882;28;20356;-66
2024/03/18 03:43:30;;;;;;;5.43;1.80;;;11.90;85.00;;;;;;5116803;28;20378;-66
2024/03/18 03:49:18;;;;;;;3.10;1.40;;;12.00;84.90;;;;;;5116684;28;20361;-66
2024/03/18 03:55:13;;;;;;;2.63;1.40;;;11.90;85.20;;;;;;5116129;28;20439;-66
2024/03/18 03:57:40;;;;;;;3.63;1.57;;;11.90;85.40;;;;;;5116393;28;20890;-66
2024/03/18 04:03:30;;;;;;;2.43;1.50;;;11.90;86.10;;;;;;5116392;28;20432;-66
2024/03/18 04:09:18;;;;;;;2.67;1.37;;;11.90;85.20;;;;;;5135566;27;20516;-67
2024/03/18 04:11:48;;;;;;;2.37;1.20;;;11.90;85.30;;;;;;5137171;27;20858;-67
2024/03/18 04:17:36;;;;;;;2.40;1.30;;;11.90;85.20;;;;;;5136608;27;20455;-66
2024/03/18 04:20:18;;;;;;;2.87;1.87;;;11.90;85.30;;;;;;5136183;27;20465;-66
2024/03/18 04:22:56;;;;;;;3.13;1.70;;;11.90;85.20;;;;;;5133876;27;20457;-66
2024/03/18 04:25:48;;;;;;;2.93;1.93;;;11.90;85.40;;;;;;5137461;27;20413;-66
2024/03/18 04:28:17;;;;;;;2.90;1.90;;;11.80;85.40;;;;;;5137104;27;20504;-66
2024/03/18 04:30:44;;;;;;;3.10;1.63;;;11.90;85.80;;;;;;5137077;27;20469;-66
2024/03/18 04:40:33;;;;;;;4.07;1.70;;;11.80;85.20;;;;;;5136172;27;20428;-66
2024/03/18 04:46:23;;;;;;;2.80;1.60;;;11.80;84.90;;;;;;5136068;27;20855;-66
2024/03/18 04:48:50;;;;;;;3.80;2.00;;;11.80;85.70;;;;;;5135740;27;20429;-67
2024/03/18 04:51:17;;;;;;;3.75;1.77;;;11.70;86.20;;;;;;5135701;27;20642;-66
2024/03/18 04:54:27;;;;;;;5.23;2.03;;;11.70;86.00;;;;;;5136656;27;20176;-66
2024/03/18 04:57:09;;;;;;;4.03;1.40;;;11.80;86.00;;;;;;5136019;27;20923;-66
2024/03/18 04:59:40;;;;;;;2.40;1.33;;;11.80;85.60;;;;;;5135541;27;20462;-66
2024/03/18 05:02:08;;;;;;;3.03;1.27;;;11.80;85.60;;;;;;5136320;27;20418;-66
2024/03/18 05:04:35;;;;;;;2.20;1.30;;;11.70;85.50;;;;;;5135599;27;20426;-66
2024/03/18 05:07:02;;;;;;;3.17;1.50;;;11.70;86.10;;;;;;5136690;27;20803;-66
2024/03/18 05:12:52;;;;;;;3.70;1.58;;;11.70;86.30;;;;;;5135316;27;20389;-66
2024/03/18 05:18:42;;;;;;;2.80;1.90;;;11.60;86.60;;;;;;5135009;27;20449;-66
2024/03/18 05:24:31;;;;;;;6.77;2.90;;;11.60;87.10;;;;;;5135435;27;20381;-66
2024/03/18 05:26:58;;;;;;;3.37;1.77;;;11.70;87.00;;;;;;5135291;27;20413;-66
2024/03/18 05:29:25;;;;;;;3.43;1.73;;;11.70;87.10;;;;;;5135441;27;20421;-66
2024/03/18 05:35:15;;;;;;;4.05;2.28;;;11.70;86.60;;;;;;5134896;27;20414;-66
2024/03/18 05:41:04;;;;;;;3.20;2.00;;;11.80;86.10;;;;;;5134535;27;20468;-66
2024/03/18 05:46:53;;;;;;;5.43;1.30;;;11.70;85.90;;;;;;5134208;27;20874;-66
2024/03/18 05:52:43;;;;;;;2.47;1.40;;;11.70;86.60;;;;;;5134312;27;20385;-66
2024/03/18 05:58:39;;;;;;;2.80;1.35;;;11.70;86.20;;;;;;5134546;27;20358;-66
2024/03/18 06:04:32;;;;;;;5.37;1.77;;;11.60;87.30;;;;;;5134213;27;20802;-66
2024/03/18 06:07:48;;;;;;;2.70;1.67;;;11.60;87.20;;;;;;5135218;27;20822;-66
2024/03/18 06:10:16;;;;;;;2.77;1.73;;;11.60;87.70;;;;;;5134467;28;20907;-66
2024/03/18 06:12:43;;;;;;;3.28;2.30;;;11.50;87.80;;;;;;5134696;28;20467;-66
2024/03/18 06:15:11;;;;;;;3.60;2.20;;;11.50;88.70;;;;;;5133876;28;20221;-66
2024/03/18 06:17:38;;;;;;;3.80;1.90;;;11.50;89.00;;;;;;5134956;28;20421;-66
2024/03/18 06:23:27;;;;;;;3.70;2.40;;;11.60;88.90;;;;;;5133683;28;20484;-66
2024/03/18 06:25:57;;;;;;;6.32;2.38;;;11.60;88.70;;;;;;5134007;28;20422;-66
2024/03/18 06:28:24;;;;;;;4.37;2.13;;;11.60;88.60;;;;;;5135773;27;20175;-66
2024/03/18 06:34:43;;;;;;;3.73;1.50;;;11.70;89.20;;;;;;5138061;27;20403;-66
2024/03/18 06:37:43;;;;;;;4.30;2.07;;;11.80;88.40;;;;;;5138170;27;20470;-66
2024/03/18 06:40:13;;;;;;;3.08;1.65;;;11.80;88.60;;;;;;5138388;27;20455;-66
2024/03/18 06:43:18;;;;;;;2.87;2.00;;;11.70;89.00;;;;;;5137855;27;20194;-66
2024/03/18 06:45:47;;;;;;;3.27;2.60;;;11.80;88.80;;;;;;5121370;27;20413;-66
2024/03/18 06:48:14;;;;;;;3.70;2.80;;;11.90;88.70;;;;;;5138055;27;20449;-66
2024/03/18 06:51:32;;;;;;;3.13;1.97;;;11.90;89.00;;;;;;5137115;27;20467;-66
2024/03/18 06:53:59;;;;;;;5.15;1.27;;;12.00;89.00;;;;;;5138763;27;20454;-66
2024/03/18 06:57:01;;;;;;;2.97;1.40;;;12.00;87.80;;;;;;5136893;27;20214;-66
2024/03/18 06:59:28;;;;;;;4.13;1.43;;;12.00;87.80;;;;;;5096344;28;20803;-66
2024/03/18 07:01:57;;;;;;;2.10;1.10;;;12.10;87.90;;;;;;5096704;28;20510;-66
2024/03/18 07:04:24;;;;;;;4.17;1.33;;;12.20;87.30;;;;;;5095989;28;20434;-66
2024/03/18 07:13:40;;;;;;;2.67;1.50;;;12.40;86.60;;;;;;5096634;28;20481;-66
2024/03/18 07:16:07;;;;;;;4.17;1.60;;;12.50;86.80;;;;;;5135398;27;20453;-67
2024/03/18 07:18:54;;;;;;;2.90;1.50;;;12.60;86.20;;;;;;5137453;27;20762;-66
2024/03/18 07:21:21;;;;;;;2.40;1.10;;;12.70;85.10;;;;;;5136993;27;20541;-66
2024/03/18 07:23:48;;;;;;;2.30;1.10;;;12.80;84.10;;;;;;5136597;27;20996;-66
2024/03/18 07:26:49;;;;;;;3.10;1.20;;;12.70;82.70;;;;;;5137787;27;20457;-66
2024/03/18 07:29:17;;;;;;;2.83;1.30;;;12.70;83.40;;;;;;5137158;27;20810;-66
2024/03/18 07:32:31;;;;;;;3.20;1.73;;;12.70;82.90;;;;;;5136218;27;20425;-66
2024/03/18 07:35:00;;;;;;;3.43;1.50;;;12.80;83.20;;;;;;5130914;27;20419;-66
2024/03/18 07:37:28;;;;;;;3.70;1.50;;;12.80;82.80;;;;;;5115574;28;20808;-66
2024/03/18 07:39:57;;;;;;;3.90;1.33;;;12.80;82.30;;;;;;5114848;28;20818;-66
2024/03/18 07:42:25;;;;;;;2.60;1.30;;;12.80;81.40;;;;;;5116153;28;20438;-67
2024/03/18 07:44:52;;;;;;;3.00;1.30;;;12.90;81.60;;;;;;5115630;28;20435;-66
2024/03/18 07:47:19;;;;;;;2.80;1.40;;;12.90;82.20;;;;;;5115422;28;20528;-66
2024/03/18 07:49:46;;;;;;;3.43;1.43;;;12.90;82.00;;;;;;5115415;28;20897;-66
2024/03/18 07:52:14;;;;;;;3.00;1.60;;;12.90;82.00;;;;;;5115574;28;20431;-67
2024/03/18 07:54:43;;;;;;;3.00;1.97;;;12.90;82.20;;;;;;5116223;28;20426;-66
2024/03/18 07:57:10;;;;;;;2.03;1.10;;;13.00;81.90;;;;;;5116089;28;20442;-67
2024/03/18 07:59:37;;;;;;;3.00;1.30;;;13.00;82.20;;;;;;5115884;28;20522;-67
2024/03/18 08:02:05;;;;;;;2.80;1.50;;;13.00;81.40;;;;;;5115813;28;21141;-66
2024/03/18 08:04:31;;;;;;;2.77;1.20;;;13.00;81.50;;;;;;5115737;28;20931;-67
2024/03/18 08:06:58;;;;;;;4.50;1.30;;;13.10;81.90;;;;;;5116109;28;20839;-66
2024/03/18 08:09:27;;;;;;;4.03;1.60;;;13.10;81.40;;;;;;5115709;28;20486;-67
2024/03/18 08:11:54;;;;;;;2.40;1.30;;;13.10;81.00;;;;;;5115995;28;20434;-66
2024/03/18 08:14:21;;;;;;;2.10;1.00;;;13.10;80.80;;;;;;5115880;28;20470;-66
2024/03/18 08:16:48;;;;;;;5.13;1.43;;;13.10;81.00;;;;;;5115612;28;20445;-66
2024/03/18 08:19:15;;;;;;;3.03;1.60;;;13.20;81.00;;;;;;5115769;28;20430;-66
2024/03/18 08:21:42;;;;;;;2.23;1.30;;;13.20;80.70;;;;;;5115409;28;20464;-67
2024/03/18 08:24:09;;;;;;;2.80;1.20;;;13.20;80.90;;;;;;5115727;28;20430;-66
2024/03/18 08:26:38;;;;;;;3.37;1.47;;;13.20;80.90;;;;;;5115397;28;20444;-67
2024/03/18 08:29:06;;;;;;;2.83;1.57;;;13.20;80.30;;;;;;5115688;28;20793;-66
2024/03/18 08:31:33;;;;;;;3.13;1.50;;;13.20;80.40;;;;;;5115883;28;20433;-66
2024/03/18 08:34:00;;;;;;;2.43;1.37;;;13.30;80.60;;;;;;5115533;28;20521;-66
2024/03/18 08:36:27;;;;;;;3.93;1.60;;;13.30;81.00;;;;;;5118903;27;20548;-66
2024/03/18 08:38:55;;;;;;;2.50;1.30;;;13.30;81.50;;;;;;5135881;27;20472;-66
2024/03/18 08:41:22;;;;;;;2.70;1.30;;;13.30;81.60;;;;;;5135782;27;20523;-66
2024/03/18 08:43:51;;;;;;;4.10;1.57;;;13.40;82.20;;;;;;5135887;27;20472;-66
2024/03/18 08:46:18;;;;;;;4.47;1.43;;;13.30;82.30;;;;;;5135460;27;20437;-66
2024/03/18 08:48:45;;;;;;;2.60;1.77;;;13.40;82.50;;;;;;5135877;27;20868;-67
2024/03/18 08:51:13;;;;;;;3.33;1.63;;;13.40;82.60;;;;;;5135081;27;20472;-66
2024/03/18 08:53:40;;;;;;;4.07;1.60;;;13.50;82.70;;;;;;5135581;27;20647;-66
2024/03/18 08:56:07;;;;;;;6.73;2.83;;;13.50;82.30;;;;;;5135294;27;20951;-66
2024/03/18 08:58:34;;;;;;;3.13;1.40;;;13.50;82.00;;;;;;5135220;27;20469;-66
2024/03/18 09:01:02;;;;;;;3.07;1.20;;;13.50;81.90;;;;;;5135079;27;20504;-66
2024/03/18 09:03:29;;;;;;;3.40;1.10;;;13.50;82.30;;;;;;5135133;27;20405;-67
2024/03/18 09:05:59;;;;;;;2.20;0.90;;;13.60;82.80;;;;;;5114556;28;20901;-66
2024/03/18 09:08:26;;;;;;;2.60;1.20;;;13.70;83.20;;;;;;5114912;28;20488;-66
2024/03/18 09:10:53;;;;;;;2.40;1.00;;;13.70;83.30;;;;;;5114747;28;20434;-66
2024/03/18 09:13:20;;;;;;;2.60;1.40;;;13.70;81.80;;;;;;5114769;28;20505;-66
2024/03/18 09:15:50;;;;;;;3.03;1.50;;;13.70;81.10;;;;;;5114703;28;20558;-66
2024/03/18 09:18:18;;;;;;;2.60;1.10;;;13.80;81.30;;;;;;5114319;28;20418;-66
2024/03/18 09:20:51;;;;;;;3.30;1.23;;;13.90;82.00;;;;;;5114190;28;20477;-66
2024/03/18 09:23:19;;;;;;;2.27;0.90;;;13.90;81.10;;;;;;5114468;28;20410;-66
2024/03/18 09:25:46;;;;;;;2.50;1.10;;;14.00;80.70;;;;;;5114240;28;20461;-66
2024/03/18 09:28:13;;;;;;;2.00;1.03;;;14.00;81.10;;;;;;5114463;28;20442;-66
2024/03/18 09:30:40;;;;;;;2.83;0.97;;;14.00;81.60;;;;;;5114483;28;20491;-66
2024/03/18 09:33:07;;;;;;;2.87;1.40;;;14.00;82.30;;;;;;5114154;28;20437;-66
2024/03/18 09:35:35;;;;;;;2.13;1.00;;;14.00;81.80;;;;;;5114711;28;20426;-66
2024/03/18 09:38:02;;;;;;;5.60;1.77;;;14.00;81.90;;;;;;5114454;28;20453;-66
2024/03/18 09:40:30;;;;;;;5.27;1.50;;;14.00;82.50;;;;;;5114370;28;20768;-66
2024/03/18 09:42:57;;;;;;;4.33;1.63;;;14.10;82.40;;;;;;5113901;28;20461;-66
2024/03/18 09:45:24;;;;;;;3.43;1.80;;;14.10;82.70;;;;;;5113850;28;20469;-66
2024/03/18 09:47:53;;;;;;;3.23;1.10;;;14.20;82.00;;;;;;5113856;28;20460;-66
2024/03/18 09:50:20;;;;;;;2.83;1.57;;;14.20;81.00;;;;;;5114184;28;20438;-66
2024/03/18 09:52:48;;;;;;;6.00;1.90;;;14.10;80.90;;;;;;5114128;28;20829;-66
2024/03/18 09:55:27;;;;;;;3.00;2.13;;;14.10;81.60;;;;;;5114130;28;20434;-66
2024/03/18 09:57:57;;;;;;;2.50;1.10;;;14.20;82.50;;;;;;5114146;28;20429;-66
2024/03/18 10:00:25;;;;;;;3.90;1.30;;;14.20;82.50;;;;;;5111635;28;20521;-66
2024/03/18 10:02:52;;;;;;;3.17;1.30;;;14.20;82.80;;;;;;5112916;28;20462;-67
2024/03/18 10:05:19;;;;;;;2.50;1.40;;;14.20;83.10;;;;;;5113571;28;20430;-66
2024/03/18 10:07:46;;;;;;;3.13;1.30;;;14.30;82.80;;;;;;5114030;28;20521;-66
2024/03/18 10:10:17;;;;;;;4.67;2.43;;;14.30;82.50;;;;;;5113813;28;20438;-67
2024/03/18 10:12:44;;;;;;;4.40;1.77;;;14.40;83.20;;;;;;5113889;28;20411;-67
2024/03/18 10:15:13;;;;;;;3.40;1.60;;;14.50;83.30;;;;;;5113766;28;20434;-66
2024/03/18 10:17:41;;;;;;;2.57;1.40;;;14.50;83.60;;;;;;5113583;28;20483;-66
2024/03/18 10:20:19;;;;;;;4.50;1.60;;;14.50;83.90;;;;;;5113486;28;20529;-66
2024/03/18 10:22:48;;;;;;;7.80;2.00;;;14.50;84.00;;;;;;5113671;28;20537;-66
2024/03/18 10:25:21;;;;;;;3.27;2.33;;;14.50;82.20;;;;;;5113276;28;20427;-66
2024/03/18 10:27:48;;;;;;;3.53;1.63;;;14.50;81.80;;;;;;5113466;28;20505;-66
2024/03/18 10:30:16;;;;;;;2.60;1.50;;;14.50;82.10;;;;;;5113658;28;20426;-66
2024/03/18 10:32:44;;;;;;;4.47;2.67;;;14.50;82.50;;;;;;5113473;28;20434;-66
2024/03/18 10:35:20;;;;;;;5.83;2.40;;;14.50;82.60;;;;;;5113454;28;20461;-66
2024/03/18 10:37:54;;;;;;;3.97;2.20;;;14.50;82.50;;;;;;5112751;28;20499;-66
2024/03/18 10:40:30;;;;;;;4.03;1.80;;;14.50;80.90;;;;;;5112979;28;20422;-66
2024/03/18 10:43:01;;;;;;;5.03;2.07;;;14.50;80.70;;;;;;5113182;28;20485;-66
2024/03/18 10:45:31;;;;;;;3.83;2.00;;;14.50;80.70;;;;;;5112881;28;20886;-66
2024/03/18 10:47:59;;;;;;;3.07;1.60;;;14.50;79.60;;;;;;5113442;28;20426;-66
2024/03/18 10:50:26;;;;;;;3.90;2.10;;;14.50;79.20;;;;;;5113155;28;20441;-66
2024/03/18 10:52:55;;;;;;;5.20;2.37;;;14.40;79.80;;;;;;5112909;28;20434;-66
2024/03/18 10:55:26;;;;;;;3.70;2.23;;;14.30;80.00;;;;;;5113053;28;20972;-66
2024/03/18 10:57:54;;;;;;;3.80;2.70;;;14.30;81.00;;;;;;5113478;28;20501;-66
2024/03/18 11:00:22;;;;;;;4.10;2.23;;;14.30;81.20;;;;;;5113325;28;20461;-66
2024/03/18 11:02:55;;;;;;;4.80;2.10;;;14.20;81.80;;;;;;5112790;28;20552;-66
2024/03/18 11:05:23;;;;;;;4.40;2.20;;;14.20;82.60;;;;;;5112955;28;20431;-66
2024/03/18 11:07:50;;;;;;;5.63;2.73;;;14.20;82.60;;;;;;5113060;28;20437;-66
2024/03/18 11:10:17;;;;;;;4.23;1.60;;;14.20;83.00;;;;;;5113176;28;20515;-66
2024/03/18 11:12:45;;;;;;;4.27;2.70;;;14.20;84.00;;;;;;5112956;28;20434;-66
2024/03/18 11:15:12;;;;;;;8.00;3.13;;;14.20;84.70;;;;;;5115411;28;20520;-66
2024/03/18 11:17:43;;;;;;;3.00;1.90;;;14.20;85.00;;;;;;5116554;28;20513;-66
2024/03/18 11:20:17;;;;;;;4.20;2.03;;;14.20;85.10;;;;;;5116430;28;20426;-66
2024/03/18 11:22:56;;;;;;;4.53;2.27;;;14.20;84.80;;;;;;5116585;28;20464;-66
2024/03/18 11:25:26;;;;;;;6.03;1.90;;;14.20;84.60;;;;;;5116737;28;20897;-66
2024/03/18 11:27:56;;;;;;;5.23;2.37;;;14.20;84.60;;;;;;5116709;28;20825;-66
2024/03/18 11:30:28;;;;;;;7.20;3.27;;;14.20;84.00;;;;;;5116341;28;20907;-66
2024/03/18 11:32:56;;;;;;;4.13;2.20;;;14.20;83.20;;;;;;5116598;28;20466;-66
2024/03/18 11:35:23;;;;;;;3.57;2.50;;;14.20;83.30;;;;;;5116550;28;20466;-66
2024/03/18 11:37:51;;;;;;;4.57;3.30;;;14.10;83.60;;;;;;5116716;28;20974;-67
2024/03/18 11:40:20;;;;;;;6.03;3.23;;;14.10;83.70;;;;;;5114837;28;20513;-66
2024/03/18 11:42:48;;;;;;;6.47;3.10;;;14.10;83.10;;;;;;5115583;28;20472;-66
2024/03/18 11:45:21;;;;;;;5.00;2.80;;;14.10;82.90;;;;;;5116221;28;20450;-66
2024/03/18 11:47:49;;;;;;;3.70;2.13;;;14.10;83.20;;;;;;5116175;28;20782;-66
2024/03/18 11:50:16;;;;;;;5.47;3.33;;;14.00;83.80;;;;;;5115674;28;20452;-66
2024/03/18 11:52:44;;;;;;;5.60;2.83;;;14.00;84.50;;;;;;5116515;28;20439;-66
2024/03/18 11:55:16;;;;;;;4.53;2.63;;;14.00;84.50;;;;;;5116201;28;20488;-66
2024/03/18 11:57:44;;;;;;;7.47;3.67;;;13.90;85.00;;;;;;5115702;28;20512;-66
2024/03/18 12:00:13;;;;;;;9.80;3.07;;;13.90;86.00;;;;;;5115289;28;20830;-66
2024/03/18 12:02:43;;;;;;;7.07;3.47;;;13.90;86.60;;;;;;5115255;28;20469;-66
2024/03/18 12:05:10;;;;;;;5.33;3.03;;;13.90;86.90;;;;;;5100095;28;20435;-66
2024/03/18 12:07:38;;;;;;;3.87;2.77;;;13.90;86.80;;;;;;5094838;28;20443;-66
2024/03/18 12:10:06;;;;;;;3.90;2.20;;;13.90;86.50;;;;;;5095042;28;20474;-66
2024/03/18 12:12:34;;;;;;;6.13;2.60;;;13.90;86.00;;;;;;5108796;28;20450;-66
2024/03/18 12:15:02;;;;;;;5.00;2.50;;;13.80;86.00;;;;;;5095792;28;20856;-66
2024/03/18 12:17:31;;;;;;;5.20;2.83;;;13.80;86.40;;;;;;5115154;28;20464;-67
2024/03/18 12:20:03;;;;;;;8.83;2.43;;;13.70;86.90;;;;;;5115429;28;20440;-66
2024/03/18 12:22:31;;;;;;;6.40;2.50;;;13.70;87.20;;;;;;5114973;28;21039;-66
2024/03/18 12:30:30;;;;;;;3.43;2.50;;;13.70;88.30;;;;;;5115413;28;20393;-66
2024/03/18 12:32:58;;;;;;;7.87;2.77;;;13.70;88.70;;;;;;5115179;28;20517;-66
2024/03/18 12:35:27;;;;;;;4.50;2.40;;;13.70;88.70;;;;;;5114999;28;20430;-66
2024/03/18 12:37:55;;;;;;;5.33;2.63;;;13.60;88.70;;;;;;5114856;28;20528;-66
2024/03/18 12:40:23;;;;;;;4.60;2.60;;;13.70;88.90;;;;;;5115374;28;20431;-66
2024/03/18 12:42:52;;;;;;;3.97;2.87;;;13.60;89.40;;;;;;5115150;28;20457;-66
2024/03/18 12:45:20;;;;;;;8.27;3.87;;;13.70;90.00;;;;;;5114919;28;20491;-66
2024/03/18 12:47:52;;;;;;;6.53;2.83;;;13.70;90.20;;;;;;5115091;28;20431;-67
2024/03/18 12:50:20;;;;;;;10.20;3.20;;;13.70;90.30;;;;;;5114911;28;20426;-66
2024/03/18 12:52:49;;;;;;;6.60;2.70;;;13.70;90.10;;;;;;5114901;28;20757;-66
2024/03/18 12:55:17;;;;;;;6.37;4.00;;;13.70;90.10;;;;;;5114666;28;20434;-66
2024/03/18 12:57:44;;;;;;;5.90;3.27;;;13.70;90.20;;;;;;5114563;28;20430;-67
2024/03/18 13:00:12;;;;;;;4.67;2.53;;;13.80;90.20;;;;;;5111643;28;20437;-66
2024/03/18 13:02:40;;;;;;;4.60;2.70;;;13.80;89.90;;;;;;5114807;28;20502;-66
2024/03/18 13:05:08;;;;;;;7.43;2.60;;;13.80;89.40;;;;;;5114806;28;20465;-66
2024/03/18 13:07:38;;;;;;;5.07;3.23;;;13.80;89.60;;;;;;5114528;28;20879;-66
2024/03/18 13:10:07;;;;;;;8.00;2.90;;;13.80;89.70;;;;;;5114548;28;20426;-66
2024/03/18 13:12:35;;;;;;;3.63;2.53;;;13.80;89.60;;;;;;5115016;28;20446;-67
2024/03/18 13:15:02;;;;;;;6.60;2.87;;;13.80;88.70;;;;;;5114490;28;20457;-66
2024/03/18 13:17:31;;;;;;;4.00;2.50;;;13.80;88.30;;;;;;5114652;28;20418;-67
2024/03/18 13:20:03;;;;;;;5.07;2.50;;;13.70;88.70;;;;;;5114383;28;20492;-66
2024/03/18 13:22:31;;;;;;;3.13;2.23;;;13.70;88.90;;;;;;5114601;28;20548;-67
2024/03/18 13:24:59;;;;;;;4.90;2.27;;;13.70;89.40;;;;;;5114446;28;20434;-66
2024/03/18 13:27:27;;;;;;;5.00;2.53;;;13.70;89.20;;;;;;5115733;28;20923;-66
2024/03/18 13:29:54;;;;;;;3.57;1.70;;;13.70;89.80;;;;;;5111798;28;20517;-67
2024/03/18 13:32:23;;;;;;;3.03;1.97;;;13.70;88.10;;;;;;5114206;28;20765;-67
2024/03/18 13:34:52;;;;;;;2.70;1.63;;;13.70;87.40;;;;;;5114170;28;20437;-66
2024/03/18 13:37:19;;;;;;;2.57;1.20;;;13.70;86.80;;;;;;5113695;28;20465;-66
2024/03/18 13:39:51;;;;;;;4.03;3.10;;;13.80;86.20;;;;;;5114115;28;20880;-66
2024/03/18 13:42:18;;;;;;;3.20;1.80;;;13.70;85.80;;;;;;5114266;28;20501;-66
2024/03/18 13:44:46;;;;;;;4.17;1.50;;;13.70;86.70;;;;;;5114258;28;20438;-66
2024/03/18 13:47:17;;;;;;;3.03;1.57;;;13.60;87.00;;;;;;5114115;28;20434;-66
2024/03/18 13:49:44;;;;;;;3.17;1.83;;;13.60;87.80;;;;;;5114348;28;20422;-66
2024/03/18 13:52:15;;;;;;;2.50;1.40;;;13.50;88.20;;;;;;5114311;28;20438;-66
2024/03/18 13:54:42;;;;;;;3.20;1.67;;;13.50;88.60;;;;;;5114242;28;20418;-66
2024/03/18 13:57:11;;;;;;;3.77;1.73;;;13.50;88.20;;;;;;5113954;28;20434;-66
2024/03/18 13:59:43;;;;;;;5.80;1.90;;;13.50;88.70;;;;;;5113983;28;20437;-66
2024/03/18 14:02:14;;;;;;;5.80;1.77;;;13.50;89.50;;;;;;5113388;28;20418;-66
2024/03/18 14:04:41;;;;;;;3.10;1.67;;;13.50;89.50;;;;;;5114900;28;20419;-66
2024/03/18 14:07:09;;;;;;;5.03;2.10;;;13.50;89.80;;;;;;5114728;28;20468;-66
2024/03/18 14:09:36;;;;;;;2.87;1.50;;;13.50;89.40;;;;;;5113847;28;20434;-66
2024/03/18 14:12:04;;;;;;;6.20;1.40;;;13.50;89.10;;;;;;5113805;28;20533;-66
2024/03/18 14:14:33;;;;;;;2.40;1.43;;;13.50;89.10;;;;;;5113485;28;20517;-67
2024/03/18 14:17:02;;;;;;;3.30;1.70;;;13.50;87.70;;;;;;5113501;28;20469;-66
2024/03/18 14:19:30;;;;;;;3.27;1.57;;;13.50;87.50;;;;;;5113831;28;20487;-66
2024/03/18 14:21:57;;;;;;;3.13;1.50;;;13.50;88.30;;;;;;5113687;28;20430;-66
2024/03/18 14:24:24;;;;;;;2.57;1.37;;;13.50;87.50;;;;;;5113111;28;20462;-66
2024/03/18 14:26:52;;;;;;;3.17;1.00;;;13.50;88.20;;;;;;5113204;28;20452;-66
2024/03/18 14:29:18;;;;;;;2.60;1.43;;;13.50;88.10;;;;;;5113187;28;20461;-66
2024/03/18 14:31:45;;;;;;;2.67;1.40;;;13.50;88.60;;;;;;5113436;28;20430;-66
2024/03/18 14:34:13;;;;;;;2.40;1.40;;;13.50;88.90;;;;;;5113180;28;20932;-66
2024/03/18 14:36:43;;;;;;;4.37;1.70;;;13.50;87.30;;;;;;5113140;28;20493;-66
2024/03/18 14:39:12;;;;;;;2.20;1.13;;;13.50;86.90;;;;;;5113113;28;20425;-66
2024/03/18 14:41:43;;;;;;;2.30;1.13;;;13.40;87.00;;;;;;5113110;28;20437;-66
2024/03/18 14:44:10;;;;;;;2.60;1.10;;;13.40;88.10;;;;;;5113040;28;20462;-66
2024/03/18 14:46:37;;;;;;;5.40;1.67;;;13.40;88.40;;;;;;5112082;28;20426;-67
2024/03/18 14:49:04;;;;;;;2.50;1.03;;;13.30;89.00;;;;;;5113558;28;20441;-66
2024/03/18 14:51:31;;;;;;;4.00;1.50;;;13.30;89.80;;;;;;5117193;28;20522;-66
2024/03/18 14:53:59;;;;;;;2.20;1.00;;;13.30;87.60;;;;;;5117302;28;20462;-67
2024/03/18 14:56:28;;;;;;;2.67;1.07;;;13.20;87.50;;;;;;5117245;28;20461;-66
2024/03/18 14:58:55;;;;;;;2.67;1.20;;;13.20;86.90;;;;;;5117283;28;20438;-66
2024/03/18 15:01:22;;;;;;;2.43;0.93;;;13.20;86.30;;;;;;5117182;28;20477;-66
2024/03/18 15:03:49;;;;;;;2.33;1.10;;;13.10;86.30;;;;;;5117204;28;20473;-67
2024/03/18 15:06:16;;;;;;;2.77;1.30;;;13.10;86.40;;;;;;5116870;28;20947;-67
2024/03/18 15:08:43;;;;;;;3.73;1.30;;;13.10;86.70;;;;;;5117061;28;20470;-66
2024/03/18 15:11:11;;;;;;;3.10;1.10;;;13.00;87.70;;;;;;5116776;28;20469;-66
2024/03/18 15:13:47;;;;;;;2.70;1.27;;;13.00;88.50;;;;;;5116960;28;20433;-66
2024/03/18 15:16:16;;;;;;;2.70;1.30;;;13.00;88.80;;;;;;5116438;28;20468;-66
2024/03/18 15:18:43;;;;;;;3.20;1.60;;;13.00;88.60;;;;;;5116613;28;20434;-66
2024/03/18 15:21:10;;;;;;;3.07;1.37;;;13.00;89.00;;;;;;5116792;28;20458;-66
2024/03/18 15:24:01;;;;;;;2.27;0.87;;;13.00;89.60;;;;;;5116383;28;20590;-66
2024/03/18 15:29:16;;;;;;;2.20;0.90;;;12.90;82.60;;;;;;5116590;28;20394;-66
2024/03/18 15:31:43;;;;;;;2.00;0.80;;;12.70;82.30;;;;;;5116749;28;20484;-66
2024/03/18 15:34:11;;;;;;;2.97;0.80;;;12.60;81.80;;;;;;5116663;28;20483;-67
2024/03/18 15:36:39;;;;;;;3.30;0.90;;;12.50;81.90;;;;;;5116734;28;20458;-66
2024/03/18 15:39:08;;;;;;;2.30;0.70;;;12.40;82.10;;;;;;5116277;28;20911;-66
2024/03/18 15:41:37;;;;;;;2.20;0.80;;;12.30;81.50;;;;;;5116823;28;20476;-66
2024/03/18 15:44:06;;;;;;;2.13;1.00;;;12.20;80.90;;;;;;5116452;28;20898;-66
2024/03/18 15:46:34;;;;;;;1.80;0.70;;;12.10;81.60;;;;;;5116509;28;20540;-66
2024/03/18 15:49:02;;;;;;;1.97;0.90;;;12.00;81.10;;;;;;5116201;28;20525;-66
2024/03/18 15:51:29;;;;;;;2.27;0.97;;;12.00;81.40;;;;;;5116312;28;20929;-66
2024/03/18 15:53:56;;;;;;;2.10;1.10;;;11.90;81.10;;;;;;5116072;28;20445;-66